Time;durP1;ratioP1;P1;durP2;ratioP2;P2;SDS_P1;SDS_P2;PMS_P1;PMS_P2;Temp;Humidity;BMP_temperature;BMP_pressure;BME280_temperature;BME280_humidity;BME280_pressure;Samples;Min_cycle;Max_cycle;Signal;HPM_P1;HPM_P2
2022/09/29 00:00:14;;;;;;;5.13;1.73;;;;;;;7.56;95.33;94884.25;4980892;29;20031;-84
2022/09/29 00:05:47;;;;;;;3.42;1.20;;;;;;;7.47;95.41;94878.13;4979055;28;20059;-84
2022/09/29 00:08:15;;;;;;;5.93;1.52;;;;;;;7.53;95.00;94876.78;4980779;28;20070;-83
2022/09/29 00:10:46;;;;;;;4.35;1.30;;;;;;;7.57;94.70;94875.00;4980707;28;20031;-83
2022/09/29 00:13:13;;;;;;;3.55;1.50;;;;;;;7.62;94.47;94873.19;4977763;28;20103;-83
2022/09/29 00:15:42;;;;;;;2.50;1.30;;;;;;;7.63;94.78;94885.63;4975830;28;20051;-82
2022/09/29 00:18:20;;;;;;;6.85;1.60;;;;;;;7.59;94.69;94871.97;4977788;28;20035;-82
2022/09/29 00:23:56;;;;;;;5.10;1.40;;;;;;;7.53;94.29;94882.22;4980802;28;20062;-83
2022/09/29 00:26:34;;;;;;;3.75;1.15;;;;;;;7.39;94.40;94881.72;4980154;29;20094;-82
2022/09/29 00:29:02;;;;;;;2.92;1.10;;;;;;;7.43;94.70;94874.50;4980302;28;20039;-83
2022/09/29 00:31:51;;;;;;;2.10;0.90;;;;;;;7.40;94.23;94869.75;4980397;28;20107;-83
2022/09/29 00:34:22;;;;;;;3.88;1.30;;;;;;;7.48;94.16;94873.50;4979994;28;20031;-83
2022/09/29 00:36:48;;;;;;;5.10;1.23;;;;;;;7.40;94.76;94864.31;4979746;29;20043;-82
2022/09/29 00:39:15;;;;;;;7.25;1.50;;;;;;;7.47;94.46;94864.59;4979362;28;20035;-82
2022/09/29 00:41:44;;;;;;;6.25;1.42;;;;;;;7.47;94.47;94869.22;4980247;29;20050;-85
2022/09/29 00:44:44;;;;;;;4.47;1.48;;;;;;;7.48;94.74;94866.16;4980086;28;20070;-83
2022/09/29 00:47:36;;;;;;;3.95;1.40;;;;;;;7.47;94.82;94867.31;4980610;28;20102;-83
2022/09/29 00:53:11;;;;;;;5.03;1.38;;;;;;;7.47;94.29;94859.19;4959753;28;20067;-82
2022/09/29 00:55:43;;;;;;;2.70;1.10;;;;;;;7.48;94.38;94860.75;4959741;28;20028;-82
2022/09/29 00:58:18;;;;;;;5.57;1.50;;;;;;;7.29;95.24;94852.34;4958879;28;20075;-82
2022/09/29 01:00:45;;;;;;;1.98;0.93;;;;;;;7.40;94.80;94860.81;4939943;29;20055;-82
2022/09/29 01:03:18;;;;;;;2.67;1.10;;;;;;;7.45;94.80;94860.63;4940266;29;20048;-83
2022/09/29 01:05:47;;;;;;;;;;;;;;;7.40;94.50;94856.19;4921943;29;20044;-82
2022/09/29 01:08:27;;;;;;;4.03;1.10;;;;;;;7.46;94.35;94863.00;4921110;29;19911;-82
2022/09/29 01:10:54;;;;;;;6.18;1.67;;;;;;;7.49;94.37;94862.34;4921337;29;20032;-82
2022/09/29 01:13:22;;;;;;;3.95;1.40;;;;;;;7.48;94.77;94862.69;4921531;29;20037;-83
2022/09/29 01:15:56;;;;;;;3.67;1.33;;;;;;;7.33;95.15;94853.25;4921712;29;20039;-83
2022/09/29 01:18:24;;;;;;;7.15;2.10;;;;;;;7.29;95.24;94850.41;4923017;29;20038;-82
2022/09/29 01:20:57;;;;;;;5.85;1.60;;;;;;;7.32;95.35;94836.22;4940167;29;20050;-83
2022/09/29 01:24:09;;;;;;;5.07;1.80;;;;;;;7.41;95.33;94828.00;4939738;29;20052;-82
2022/09/29 01:27:36;;;;;;;4.65;1.75;;;;;;;7.35;95.07;94818.50;4922817;29;20088;-82
2022/09/29 01:30:23;;;;;;;4.65;1.38;;;;;;;7.40;94.85;94826.41;4939716;29;20045;-82
2022/09/29 01:36:31;;;;;;;5.90;1.73;;;;;;;7.22;95.46;94838.56;4920971;29;20040;-82
2022/09/29 01:39:12;;;;;;;3.15;1.50;;;;;;;7.25;95.86;94837.88;4935181;29;20055;-83
2022/09/29 01:41:48;;;;;;;4.43;1.63;;;;;;;7.25;95.67;94844.06;4940127;29;20039;-83
2022/09/29 01:44:22;;;;;;;4.90;1.85;;;;;;;7.26;95.72;94837.56;4978425;28;20095;-82
2022/09/29 01:47:02;;;;;;;2.63;1.20;;;;;;;7.15;96.53;94841.00;4979249;29;20045;-83
2022/09/29 01:49:35;;;;;;;3.60;1.63;;;;;;;7.15;96.64;94836.41;4978822;29;20091;-81
2022/09/29 01:52:18;;;;;;;9.85;1.70;;;;;;;7.16;96.50;94837.19;4978389;29;20124;-82
2022/09/29 01:54:51;;;;;;;2.58;1.30;;;;;;;7.21;96.28;94839.69;4978518;28;20062;-82
2022/09/29 01:57:38;;;;;;;4.78;1.65;;;;;;;7.20;96.26;94833.44;4979133;28;20047;-82
2022/09/29 02:00:19;;;;;;;4.72;1.70;;;;;;;7.24;96.29;94839.00;4979139;28;20070;-82
2022/09/29 02:06:00;;;;;;;4.72;1.70;;;;;;;7.25;96.74;94840.59;4979171;28;20058;-83
2022/09/29 02:08:44;;;;;;;3.70;1.70;;;;;;;7.17;96.79;94834.13;4979108;28;20276;-82
2022/09/29 02:11:17;;;;;;;5.78;1.83;;;;;;;7.20;96.90;94838.09;4978806;28;20119;-83
2022/09/29 02:13:47;;;;;;;;;;;;;;;7.09;96.84;94832.28;4979206;28;20035;-83
2022/09/29 02:16:30;;;;;;;2.60;1.42;;;;;;;7.15;96.57;94830.16;4979172;28;19922;-82
2022/09/29 02:19:05;;;;;;;3.25;1.50;;;;;;;7.13;96.89;94821.59;4979343;28;20099;-82
2022/09/29 02:21:33;;;;;;;3.70;1.83;;;;;;;7.15;97.30;94827.47;4962465;28;20107;-82
2022/09/29 02:27:06;;;;;;;5.47;1.83;;;;;;;7.21;97.28;94823.44;4956074;28;20059;-83
2022/09/29 02:29:36;;;;;;;6.57;2.10;;;;;;;7.25;97.10;94827.03;4969290;28;20107;-82
2022/09/29 02:32:33;;;;;;;6.57;2.00;;;;;;;7.27;96.71;94833.72;4979337;28;20042;-82
2022/09/29 02:38:42;;;;;;;4.78;1.80;;;;;;;7.27;96.47;94833.72;4982283;28;20047;-83
2022/09/29 02:41:24;;;;;;;3.58;1.80;;;;;;;7.35;96.06;94828.53;4982072;28;20035;-82
2022/09/29 02:44:24;;;;;;;3.83;1.88;;;;;;;7.31;95.79;94836.56;4982032;28;20079;-83
2022/09/29 02:47:08;;;;;;;3.42;1.45;;;;;;;7.42;96.09;94836.94;4981638;28;20057;-83
2022/09/29 02:49:50;;;;;;;4.45;1.83;;;;;;;7.46;96.05;94830.50;4982276;28;20087;-82
2022/09/29 02:52:30;;;;;;;4.28;1.70;;;;;;;7.49;96.09;94835.25;4982125;28;20082;-83
2022/09/29 02:55:06;;;;;;;7.75;1.85;;;;;;;7.41;95.80;94828.00;4981141;28;20039;-83
2022/09/29 02:57:50;;;;;;;3.67;1.63;;;;;;;7.39;96.00;94834.88;4982237;28;20095;-82
2022/09/29 03:00:21;;;;;;;4.97;2.22;;;;;;;7.48;95.79;94843.72;4982076;28;20114;-84
2022/09/29 03:02:51;;;;;;;3.80;1.77;;;;;;;7.56;95.78;94835.47;4981907;28;20043;-83
2022/09/29 03:05:21;;;;;;;5.07;1.92;;;;;;;7.61;95.22;94841.81;4981643;28;20057;-83
2022/09/29 03:07:48;;;;;;;3.70;1.85;;;;;;;7.63;95.41;94834.16;4981833;28;20047;-83
2022/09/29 03:10:23;;;;;;;2.97;1.45;;;;;;;7.64;95.33;94831.09;4981780;28;20063;-83
2022/09/29 03:16:35;;;;;;;5.05;2.03;;;;;;;7.64;95.46;94830.31;4981204;28;20031;-83
2022/09/29 03:19:04;;;;;;;6.35;2.40;;;;;;;7.71;94.93;94825.13;4981480;28;20040;-83
2022/09/29 03:24:26;;;;;;;6.57;1.98;;;;;;;7.68;94.94;94817.69;4981891;28;20075;-83
2022/09/29 03:26:54;;;;;;;5.05;1.90;;;;;;;7.73;95.01;94817.47;4981775;28;20047;-83
2022/09/29 03:32:20;;;;;;;7.40;2.47;;;;;;;7.71;95.04;94806.94;4981663;28;20054;-82
2022/09/29 03:34:48;;;;;;;4.60;2.00;;;;;;;7.79;94.93;94805.28;4981472;28;20057;-83
2022/09/29 03:37:18;;;;;;;5.00;1.90;;;;;;;7.79;95.03;94808.00;4981641;28;20054;-83
2022/09/29 03:40:20;;;;;;;3.83;1.95;;;;;;;7.68;94.12;94809.56;4981113;28;20028;-83
2022/09/29 03:42:49;;;;;;;2.33;1.40;;;;;;;7.71;93.94;94803.44;4981356;28;20081;-82
2022/09/29 03:48:30;;;;;;;3.85;1.80;;;;;;;7.53;94.13;94816.41;4981066;28;20034;-83
2022/09/29 03:50:59;;;;;;;3.72;1.98;;;;;;;7.61;93.56;94820.13;4973106;28;20078;-83
2022/09/29 03:53:31;;;;;;;4.25;2.05;;;;;;;7.66;93.60;94822.63;4981077;28;20095;-82
2022/09/29 03:55:58;;;;;;;5.22;1.90;;;;;;;7.71;93.85;94815.06;4981418;28;20046;-83
2022/09/29 03:58:26;;;;;;;3.55;1.77;;;;;;;7.74;93.75;94811.72;4980701;28;20032;-83
2022/09/29 04:00:53;;;;;;;4.10;1.77;;;;;;;7.80;94.00;94806.84;4980148;29;20039;-83
2022/09/29 04:03:20;;;;;;;5.30;2.28;;;;;;;7.70;94.17;94799.16;4981065;28;20047;-82
2022/09/29 04:05:48;;;;;;;4.63;2.33;;;;;;;7.62;94.80;94800.84;4981023;28;20031;-82
2022/09/29 04:08:19;;;;;;;5.43;2.30;;;;;;;7.67;94.73;94789.78;4979817;28;20047;-83
2022/09/29 04:10:50;;;;;;;3.10;1.75;;;;;;;7.75;94.57;94804.38;4980943;28;20053;-81
2022/09/29 04:13:16;;;;;;;6.97;2.53;;;;;;;7.75;94.66;94809.78;4981097;28;20111;-82
2022/09/29 04:15:46;;;;;;;4.85;2.40;;;;;;;7.72;94.88;94815.88;4981065;28;20045;-83
2022/09/29 04:24:26;;;;;;;5.28;2.17;;;;;;;7.69;94.65;94822.75;4980414;28;20054;-82
2022/09/29 04:26:53;;;;;;;3.63;2.35;;;;;;;7.76;94.43;94822.19;4980475;28;20043;-82
2022/09/29 04:33:09;;;;;;;6.70;2.85;;;;;;;7.66;95.05;94825.34;4981080;28;20070;-84
2022/09/29 04:59:52;;;;;;;6.20;2.63;;;;;;;7.77;95.37;94831.91;4959530;29;20095;-83
2022/09/29 05:05:27;;;;;;;4.00;2.10;;;;;;;7.60;94.49;94832.91;4959985;29;20048;-82
2022/09/29 05:07:54;;;;;;;3.22;1.92;;;;;;;7.70;94.33;94823.56;4959397;28;20098;-83
2022/09/29 05:11:03;;;;;;;4.55;2.10;;;;;;;7.77;94.20;94812.94;4959714;29;20107;-82
2022/09/29 05:14:13;;;;;;;6.05;2.35;;;;;;;7.82;94.03;94812.72;4959925;29;20091;-83
2022/09/29 05:16:40;;;;;;;4.60;2.20;;;;;;;7.85;94.53;94809.34;4958667;29;20066;-82
2022/09/29 05:19:07;;;;;;;6.30;2.40;;;;;;;7.82;94.53;94816.22;4968694;29;20059;-81
2022/09/29 05:21:34;;;;;;;4.82;2.40;;;;;;;7.80;94.59;94817.69;4978453;28;20043;-83
2022/09/29 05:24:00;;;;;;;5.20;2.42;;;;;;;7.81;94.67;94813.84;4979131;28;20099;-81
2022/09/29 05:37:50;;;;;;;7.38;3.35;;;;;;;7.79;93.62;94818.81;4884317;23;20058;-83
2022/09/29 05:40:38;;;;;;;7.68;3.53;;;;;;;7.80;93.97;94812.28;4979854;28;20082;-83
2022/09/29 05:46:08;;;;;;;13.52;5.95;;;;;;;7.79;94.68;94816.91;4977702;28;20036;-83
2022/09/29 05:49:08;;;;;;;15.18;6.35;;;;;;;7.89;95.32;94814.88;4978246;28;20051;-82
2022/09/29 05:55:40;;;;;;;10.43;4.15;;;;;;;7.83;94.80;94808.91;4948300;29;20043;-82
2022/09/29 05:58:12;;;;;;;12.05;4.03;;;;;;;7.73;95.34;94801.22;4973731;28;20058;-84
2022/09/29 06:00:39;;;;;;;7.72;3.15;;;;;;;7.77;95.38;94797.47;4978432;28;20039;-83
2022/09/29 06:03:35;;;;;;;7.82;3.60;;;;;;;7.84;95.14;94810.47;4994574;28;20042;-83
2022/09/29 06:06:08;;;;;;;10.80;3.20;;;;;;;7.69;94.55;94811.13;4978614;29;20055;-83
2022/09/29 06:08:38;;;;;;;6.97;2.65;;;;;;;7.71;94.66;94814.28;4978321;28;20046;-83
2022/09/29 06:11:07;;;;;;;9.40;3.25;;;;;;;7.74;94.72;94810.91;4980416;28;20051;-83
2022/09/29 06:14:04;;;;;;;8.10;2.50;;;;;;;7.80;94.27;94812.28;4982898;28;20090;-83
2022/09/29 06:16:32;;;;;;;7.20;2.45;;;;;;;7.85;94.21;94814.75;4981037;28;20612;-83
2022/09/29 06:19:00;;;;;;;7.75;2.65;;;;;;;7.85;94.34;94809.34;4981673;28;20075;-82
2022/09/29 06:21:29;;;;;;;5.93;2.10;;;;;;;7.92;93.98;94808.78;4966522;28;20035;-82
2022/09/29 06:24:07;;;;;;;7.72;2.55;;;;;;;7.93;93.99;94810.34;4962223;28;20087;-82
2022/09/29 06:26:34;;;;;;;8.93;2.40;;;;;;;7.98;93.81;94813.63;4962226;28;20052;-83
2022/09/29 06:29:23;;;;;;;6.63;2.47;;;;;;;8.00;93.86;94818.72;4962062;28;20083;-82
2022/09/29 06:31:51;;;;;;;6.65;2.45;;;;;;;7.79;93.60;94818.81;4962493;29;20064;-83
2022/09/29 06:34:18;;;;;;;7.22;2.35;;;;;;;7.92;93.46;94814.97;4962222;28;20044;-82
2022/09/29 06:42:37;;;;;;;7.68;2.22;;;;;;;8.09;93.33;94809.34;4961525;29;20050;-83
2022/09/29 06:45:11;;;;;;;9.60;2.90;;;;;;;8.11;93.16;94806.28;4980627;28;20047;-83
2022/09/29 06:50:22;;;;;;;9.38;3.33;;;;;;;8.17;93.45;94793.28;4974240;29;20047;-82
2022/09/29 06:53:24;;;;;;;6.57;2.63;;;;;;;8.17;93.71;94798.72;4962356;28;20047;-83
2022/09/29 06:55:55;;;;;;;9.88;2.72;;;;;;;8.20;93.64;94803.47;4970772;28;20031;-83
2022/09/29 06:58:23;;;;;;;9.02;2.70;;;;;;;8.17;93.36;94812.28;4981840;28;20051;-83
2022/09/29 07:00:52;;;;;;;5.28;2.20;;;;;;;8.22;93.19;94817.47;4981466;28;20031;-83
2022/09/29 07:03:21;;;;;;;7.95;2.53;;;;;;;8.17;92.75;94804.16;4981122;28;20035;-83
2022/09/29 07:05:48;;;;;;;14.57;3.47;;;;;;;8.34;92.52;94809.31;4980650;28;20031;-82
2022/09/29 07:14:13;;;;;;;5.05;2.22;;;;;;;8.59;92.63;94827.16;4980932;23;20064;-86
2022/09/29 07:16:42;;;;;;;4.10;1.75;;;;;;;8.61;92.25;94830.34;4968184;29;20403;-81
2022/09/29 07:19:12;;;;;;;4.13;1.92;;;;;;;8.71;92.44;94834.50;4956158;29;20052;-87
2022/09/29 07:21:39;;;;;;;6.35;2.10;;;;;;;8.60;91.68;94831.47;4948296;29;20048;-85
2022/09/29 07:24:06;;;;;;;6.88;2.08;;;;;;;8.63;92.25;94843.56;4934362;29;20072;-83
2022/09/29 07:26:33;;;;;;;5.60;2.25;;;;;;;8.70;92.63;94848.41;4934008;29;20142;-84
2022/09/29 07:28:59;;;;;;;5.38;2.13;;;;;;;8.65;92.25;94851.34;5034374;23;20043;-84
2022/09/29 07:31:26;;;;;;;6.07;2.30;;;;;;;8.71;92.12;94852.69;4950884;29;20510;-84
2022/09/29 07:33:56;;;;;;;4.95;2.08;;;;;;;8.79;92.35;94857.22;4946419;29;20054;-81
2022/09/29 07:36:24;;;;;;;5.30;1.95;;;;;;;8.88;92.23;94852.44;4944912;29;20055;-80
2022/09/29 07:38:52;;;;;;;8.20;3.00;;;;;;;8.92;92.77;94847.88;4948091;29;20060;-83
2022/09/29 07:41:21;;;;;;;6.25;2.60;;;;;;;9.00;93.16;94841.53;4947104;29;20083;-83
2022/09/29 07:43:48;;;;;;;5.07;2.55;;;;;;;9.13;93.13;94845.81;4954005;29;20055;-84
2022/09/29 07:46:14;;;;;;;5.60;3.03;;;;;;;9.24;93.34;94839.84;4951800;29;20562;-81
2022/09/29 07:48:42;;;;;;;3.50;2.00;;;;;;;9.28;92.57;94838.81;4955679;28;20039;-87
2022/09/29 07:53:48;;;;;;;10.95;2.95;;;;;;;9.48;91.26;94849.84;5230548;23;20051;-87
2022/09/29 07:56:17;;;;;;;8.43;2.55;;;;;;;9.56;90.91;94844.25;5188907;23;20047;-83
2022/09/29 07:58:44;;;;;;;4.65;1.67;;;;;;;9.61;90.19;94849.44;4955018;29;20082;-85
2022/09/29 08:01:14;;;;;;;6.47;1.83;;;;;;;9.71;89.07;94844.59;4954758;29;20119;-86
2022/09/29 08:03:43;;;;;;;6.22;2.00;;;;;;;9.78;89.14;94852.97;5075115;23;20507;-84
2022/09/29 08:06:13;;;;;;;8.88;2.40;;;;;;;9.85;89.39;94850.41;4967167;29;20055;-81
2022/09/29 08:08:41;;;;;;;4.38;2.05;;;;;;;9.96;88.59;94854.19;4968235;29;20044;-85
2022/09/29 08:11:12;;;;;;;4.15;1.88;;;;;;;10.00;88.44;94855.09;4972575;29;20070;-86
2022/09/29 08:13:40;;;;;;;6.13;2.28;;;;;;;10.14;87.73;94854.66;4969363;28;20051;-85
2022/09/29 08:16:10;;;;;;;2.90;2.00;;;;;;;10.10;86.91;94854.56;4971849;29;20051;-86
2022/09/29 08:18:37;;;;;;;4.20;1.60;;;;;;;10.22;85.33;94853.66;4974409;28;20051;-89
2022/09/29 08:21:06;;;;;;;5.90;1.90;;;;;;;10.30;84.52;94852.75;4970743;28;20051;-86
2022/09/29 08:27:38;;;;;;;6.55;2.42;;;;;;;10.41;84.52;94853.00;4978765;29;20079;-82
2022/09/29 08:30:21;;;;;;;3.88;1.45;;;;;;;10.35;82.02;94860.63;4978634;28;20079;-83
2022/09/29 08:33:14;;;;;;;9.98;1.67;;;;;;;10.56;83.31;94862.28;4977726;28;20054;-82
2022/09/29 08:35:57;;;;;;;6.00;1.60;;;;;;;10.67;84.11;94861.38;4967760;29;20051;-82
2022/09/29 08:38:50;;;;;;;7.00;1.70;;;;;;;10.75;82.47;94866.97;4978562;28;20039;-83
2022/09/29 08:41:35;;;;;;;4.10;1.40;;;;;;;10.80;81.35;94863.97;4978955;29;20057;-82
2022/09/29 08:44:33;;;;;;;9.20;1.77;;;;;;;10.73;81.74;94880.94;4961933;29;20043;-82
2022/09/29 08:50:55;;;;;;;6.65;1.80;;;;;;;10.94;81.17;94870.53;4941817;29;20042;-83
2022/09/29 08:53:55;;;;;;;5.30;1.35;;;;;;;11.07;82.11;94873.94;4979338;28;20050;-83
2022/09/29 08:57:39;;;;;;;9.13;1.70;;;;;;;11.08;79.16;94864.59;4978839;29;20041;-83
2022/09/29 09:00:12;;;;;;;6.40;1.73;;;;;;;10.97;79.55;94864.38;4979341;28;20051;-83
2022/09/29 09:03:12;;;;;;;5.30;1.58;;;;;;;11.01;79.95;94864.44;4979666;28;20078;-82
2022/09/29 09:06:00;;;;;;;3.75;1.02;;;;;;;10.96;79.72;94864.72;4978932;28;20027;-83
2022/09/29 09:09:12;;;;;;;4.78;1.42;;;;;;;10.94;79.84;94864.28;4979621;28;20083;-83
2022/09/29 09:12:00;;;;;;;7.68;1.63;;;;;;;10.85;79.83;94866.41;4939727;29;20071;-83
2022/09/29 09:15:33;;;;;;;7.25;1.75;;;;;;;10.90;79.40;94860.69;4976521;28;20059;-83
2022/09/29 09:25:00;;;;;;;3.90;1.20;;;;;;;10.90;79.60;94866.13;4966052;28;20035;-82
2022/09/29 09:27:47;;;;;;;3.65;1.42;;;;;;;10.93;78.92;94876.34;4979587;28;20053;-83
2022/09/29 09:30:51;;;;;;;3.25;1.20;;;;;;;10.88;79.80;94877.41;4978466;28;20043;-82
2022/09/29 09:33:26;;;;;;;5.17;1.40;;;;;;;10.77;78.90;94876.38;4979679;28;20048;-83
2022/09/29 09:36:03;;;;;;;4.47;1.33;;;;;;;10.78;78.08;94882.59;4979481;28;20278;-84
2022/09/29 09:39:05;;;;;;;6.50;1.50;;;;;;;10.76;78.18;94874.00;4979604;28;20051;-83
2022/09/29 09:42:03;;;;;;;4.28;1.27;;;;;;;10.59;76.90;94869.72;4979056;28;20037;-83
2022/09/29 09:44:38;;;;;;;10.50;3.05;;;;;;;10.66;77.86;94875.34;4978373;28;20036;-82
2022/09/29 09:47:23;;;;;;;11.10;3.97;;;;;;;10.62;78.21;94879.91;4981111;28;20062;-83
2022/09/29 09:53:44;;;;;;;4.43;1.55;;;;;;;10.52;76.87;94875.78;4974118;28;20083;-84
2022/09/29 09:56:28;;;;;;;5.55;1.45;;;;;;;10.47;75.74;94873.34;4982486;28;20054;-82
2022/09/29 09:59:37;;;;;;;10.52;2.08;;;;;;;10.59;77.63;94875.16;4982476;28;20035;-82
2022/09/29 10:02:42;;;;;;;5.55;1.67;;;;;;;10.52;77.09;94870.34;4965394;28;20082;-83
2022/09/29 10:05:12;;;;;;;7.38;2.05;;;;;;;10.41;76.71;94877.47;4982542;28;20042;-83
2022/09/29 10:07:48;;;;;;;4.15;1.90;;;;;;;10.51;77.39;94876.16;4966091;28;20039;-83
2022/09/29 10:10:42;;;;;;;5.53;1.85;;;;;;;10.44;78.50;94879.50;4982844;28;20038;-83
2022/09/29 10:13:21;;;;;;;8.75;2.05;;;;;;;10.56;80.38;94879.41;4981767;28;20057;-82
2022/09/29 10:20:09;;;;;;;9.70;2.47;;;;;;;10.48;79.02;94885.81;4979730;28;20039;-82
2022/09/29 10:22:47;;;;;;;17.58;5.28;;;;;;;10.54;80.06;94889.81;4976898;28;20101;-82
2022/09/29 10:25:23;;;;;;;10.00;3.50;;;;;;;10.49;78.86;94887.38;4979762;28;20114;-82
2022/09/29 10:27:53;;;;;;;12.95;2.15;;;;;;;10.32;77.26;94882.31;4964136;29;20031;-82
2022/09/29 10:30:41;;;;;;;10.23;2.28;;;;;;;10.40;76.87;94893.03;4980794;29;20106;-82
2022/09/29 10:33:17;;;;;;;7.43;1.98;;;;;;;10.43;78.41;94886.06;4963468;28;20047;-83
2022/09/29 10:38:57;;;;;;;6.38;1.45;;;;;;;10.43;77.05;94888.78;4979921;28;20047;-83
2022/09/29 10:41:26;;;;;;;7.00;1.60;;;;;;;10.42;76.95;94892.66;4981539;28;20047;-84
2022/09/29 10:44:20;;;;;;;3.33;1.05;;;;;;;10.45;76.57;94897.41;4981978;29;20134;-85
2022/09/29 10:46:53;;;;;;;9.30;1.63;;;;;;;10.39;76.19;94905.06;4964185;28;20032;-83
2022/09/29 10:49:33;;;;;;;5.72;1.25;;;;;;;10.44;74.68;94904.00;4981547;28;20030;-83
2022/09/29 10:52:44;;;;;;;11.10;2.15;;;;;;;10.39;75.62;94909.72;4961766;29;20027;-84
2022/09/29 10:55:18;;;;;;;15.77;2.42;;;;;;;10.38;75.90;94902.66;4960709;29;20067;-83
2022/09/29 10:57:53;;;;;;;18.08;2.50;;;;;;;10.42;75.97;94898.88;4959905;29;20103;-84
2022/09/29 11:00:30;;;;;;;11.18;2.22;;;;;;;10.46;76.64;94904.44;4955952;29;20052;-82
2022/09/29 11:03:25;;;;;;;8.77;1.95;;;;;;;10.44;76.68;94914.88;4945076;29;20059;-83
2022/09/29 11:06:10;;;;;;;12.32;2.70;;;;;;;10.43;76.99;94913.28;4960769;29;20067;-84
2022/09/29 11:08:58;;;;;;;5.93;1.70;;;;;;;10.47;75.58;94910.66;4961058;29;20054;-82
2022/09/29 11:11:52;;;;;;;18.83;3.40;;;;;;;10.47;76.04;94900.56;4959998;29;20059;-83
2022/09/29 11:14:29;;;;;;;8.90;2.60;;;;;;;10.50;77.15;94909.97;4961097;29;20055;-83
2022/09/29 11:16:59;;;;;;;9.63;3.10;;;;;;;10.53;77.34;94910.03;4961427;29;20089;-83
2022/09/29 11:19:44;;;;;;;8.50;2.45;;;;;;;10.45;75.20;94919.19;4962424;29;20085;-82
2022/09/29 11:22:36;;;;;;;7.25;2.25;;;;;;;10.55;75.78;94912.41;4961679;29;20062;-83
2022/09/29 11:25:37;;;;;;;54.83;7.85;;;;;;;10.49;75.33;94917.31;4942721;29;20093;-84
2022/09/29 11:28:20;;;;;;;6.70;2.33;;;;;;;10.51;76.49;94922.44;4943273;29;20091;-83
2022/09/29 11:31:07;;;;;;;8.35;2.85;;;;;;;10.51;77.30;94927.88;4942417;29;20082;-82
2022/09/29 11:33:54;;;;;;;9.82;2.55;;;;;;;10.53;76.42;94929.09;4941925;29;20036;-83
2022/09/29 11:36:38;;;;;;;8.77;2.33;;;;;;;10.52;76.70;94919.34;4941728;29;20100;-83
2022/09/29 11:39:22;;;;;;;;;;;;;;;10.53;76.89;94920.91;4941161;29;20096;-83
2022/09/29 11:42:15;;;;;;;7.97;2.47;;;;;;;10.37;75.55;94920.13;4941775;29;19907;-83
2022/09/29 11:45:13;;;;;;;16.13;3.53;;;;;;;10.40;73.98;94927.59;4942478;29;20060;-84
2022/09/29 11:48:08;;;;;;;9.38;2.50;;;;;;;10.34;74.17;94929.81;4942346;29;20043;-82
2022/09/29 11:50:57;;;;;;;9.25;2.58;;;;;;;10.39;74.83;94931.47;4950239;29;20035;-83
2022/09/29 11:53:46;;;;;;;4.75;2.13;;;;;;;10.43;75.61;94927.69;4960527;28;20099;-83
2022/09/29 11:56:36;;;;;;;15.65;4.47;;;;;;;10.37;74.95;94929.09;4961453;28;20035;-83
2022/09/29 11:59:22;;;;;;;7.00;2.25;;;;;;;10.29;74.96;94932.00;4961695;28;20092;-83
2022/09/29 12:02:07;;;;;;;12.43;2.40;;;;;;;10.11;77.05;94924.13;4961434;28;20123;-83
2022/09/29 12:04:48;;;;;;;3.42;1.63;;;;;;;10.06;76.87;94929.81;4962036;28;20066;-84
2022/09/29 12:07:34;;;;;;;9.75;2.10;;;;;;;10.15;77.57;94933.19;4961258;28;20032;-83
2022/09/29 12:10:24;;;;;;;10.38;2.47;;;;;;;10.24;78.85;94934.97;4961001;28;20059;-85
2022/09/29 12:13:22;;;;;;;4.82;1.63;;;;;;;10.27;79.50;94928.81;4961863;28;20055;-83
2022/09/29 12:15:55;;;;;;;7.50;2.53;;;;;;;10.28;80.49;94930.41;4969015;23;20082;-80
2022/09/29 12:18:28;;;;;;;9.02;2.55;;;;;;;10.33;81.08;94933.66;4927088;29;20055;-81
2022/09/29 12:20:57;;;;;;;;;;;;;;;10.34;81.91;94935.25;4943545;29;20122;-78
2022/09/29 12:23:30;;;;;;;10.10;2.85;;;;;;;10.33;81.92;94935.56;4928449;29;19954;-82
2022/09/29 12:26:03;;;;;;;6.45;2.13;;;;;;;10.34;82.10;94929.81;4951216;28;20119;-83
2022/09/29 12:28:36;;;;;;;5.95;2.60;;;;;;;10.35;82.43;94925.16;4953010;29;20047;-83
2022/09/29 12:31:12;;;;;;;5.43;2.45;;;;;;;10.27;81.18;94924.16;4954192;29;20047;-86
2022/09/29 12:33:43;;;;;;;15.43;3.35;;;;;;;10.38;81.83;94932.59;5131252;23;20027;-86
2022/09/29 12:39:20;;;;;;;7.18;2.63;;;;;;;10.47;83.15;94927.78;4964025;28;20054;-80
2022/09/29 12:41:53;;;;;;;8.52;2.67;;;;;;;10.53;82.91;94928.28;4964414;28;20051;-81
2022/09/29 12:44:25;;;;;;;;;;;;;;;10.59;83.27;94932.31;4965108;28;20055;-83
2022/09/29 12:46:59;;;;;;;6.68;2.75;;;;;;;10.62;82.88;94931.63;4966118;29;19922;-82
2022/09/29 12:49:34;;;;;;;4.40;2.08;;;;;;;10.59;81.90;94924.16;4970270;28;20085;-81
2022/09/29 12:52:04;;;;;;;4.85;2.10;;;;;;;10.63;81.93;94934.00;4953841;29;20047;-83
2022/09/29 12:54:37;;;;;;;12.85;3.30;;;;;;;10.68;83.56;94933.72;4953817;29;20055;-81
2022/09/29 12:57:05;;;;;;;4.72;3.00;;;;;;;10.71;82.97;94934.97;4951005;29;20056;-82
2022/09/29 12:59:37;;;;;;;7.13;3.38;;;;;;;10.75;82.25;94927.66;4952535;29;20075;-83
2022/09/29 13:02:30;;;;;;;6.93;2.90;;;;;;;10.77;82.46;94935.50;4951500;29;20051;-83
2022/09/29 13:05:28;;;;;;;7.75;2.90;;;;;;;10.77;82.58;94930.03;4951846;29;20299;-84
2022/09/29 13:08:22;;;;;;;7.38;3.30;;;;;;;10.79;82.65;94933.19;4948916;29;20206;-84
2022/09/29 13:11:07;;;;;;;24.08;10.57;;;;;;;10.82;83.19;94930.56;4947779;29;20047;-80
2022/09/29 13:13:53;;;;;;;9.10;3.97;;;;;;;10.76;83.50;94936.63;4949659;29;20059;-83
2022/09/29 13:16:35;;;;;;;8.05;3.50;;;;;;;10.81;83.58;94925.47;4951783;29;20054;-86
2022/09/29 13:19:34;;;;;;;8.07;3.45;;;;;;;10.89;83.81;94930.72;4955366;29;20116;-86
2022/09/29 13:22:22;;;;;;;4.60;2.65;;;;;;;10.90;83.72;94924.13;4962097;23;20051;-87
2022/09/29 13:24:58;;;;;;;6.65;2.80;;;;;;;10.93;84.43;94923.41;4974929;29;20047;-81
2022/09/29 13:27:31;;;;;;;10.20;3.53;;;;;;;10.98;84.89;94930.53;4962633;29;20056;-79
2022/09/29 13:30:06;;;;;;;12.38;4.05;;;;;;;11.02;85.26;94925.97;4962569;28;20055;-77
2022/09/29 13:32:39;;;;;;;4.60;2.67;;;;;;;11.02;84.82;94933.34;4963466;28;20081;-83
2022/09/29 13:35:17;;;;;;;7.63;3.00;;;;;;;10.96;84.32;94936.34;4970626;29;20079;-87
2022/09/29 13:37:48;;;;;;;5.80;2.72;;;;;;;10.91;84.43;94941.25;4972979;28;20062;-80
2022/09/29 13:40:21;;;;;;;10.23;3.25;;;;;;;10.79;83.62;94941.34;4965123;28;20051;-81
2022/09/29 13:42:50;;;;;;;6.53;2.90;;;;;;;10.88;83.68;94939.25;4966325;28;20102;-82
2022/09/29 13:45:46;;;;;;;10.95;3.63;;;;;;;10.93;83.82;94936.25;4965993;28;20058;-82
2022/09/29 13:48:49;;;;;;;11.10;3.40;;;;;;;10.93;84.35;94945.22;4944214;28;20056;-83
2022/09/29 13:51:50;;;;;;;9.75;3.10;;;;;;;10.88;84.07;94948.19;4968104;28;20078;-86
2022/09/29 13:54:36;;;;;;;9.30;3.38;;;;;;;10.84;83.78;94949.25;4966510;28;20063;-87
2022/09/29 13:57:29;;;;;;;8.77;3.40;;;;;;;10.78;84.00;94953.41;4967210;28;20051;-84
2022/09/29 14:00:24;;;;;;;6.47;3.03;;;;;;;10.79;84.01;94947.59;4967474;29;20047;-85
2022/09/29 14:03:20;;;;;;;6.88;3.63;;;;;;;10.82;84.83;94951.56;4946836;29;20055;-83
2022/09/29 14:06:14;;;;;;;12.23;4.22;;;;;;;10.84;85.11;94960.16;4963111;28;20410;-80
2022/09/29 14:08:48;;;;;;;11.98;3.67;;;;;;;10.73;85.04;94967.28;4961556;28;20061;-80
2022/09/29 14:11:23;;;;;;;16.35;4.15;;;;;;;10.71;84.54;94968.44;4963096;28;20084;-80
2022/09/29 14:13:56;;;;;;;7.53;2.83;;;;;;;10.62;83.85;94975.97;4963935;28;20606;-84
2022/09/29 14:19:06;;;;;;;9.68;2.92;;;;;;;10.63;83.96;94977.56;5241314;23;20047;-83
2022/09/29 14:21:49;;;;;;;12.55;3.72;;;;;;;10.59;84.83;94979.38;4959544;28;20044;-82
2022/09/29 14:24:46;;;;;;;8.00;3.28;;;;;;;10.61;84.95;94987.22;4960169;28;20034;-83
2022/09/29 14:27:39;;;;;;;8.13;3.33;;;;;;;10.57;85.01;94992.56;4960048;28;20107;-84
2022/09/29 14:30:16;;;;;;;12.25;3.92;;;;;;;10.52;84.50;94997.47;4937513;28;20052;-82
2022/09/29 14:32:52;;;;;;;11.60;3.45;;;;;;;10.56;83.75;94992.94;4961511;28;20051;-83
2022/09/29 14:35:25;;;;;;;9.10;3.40;;;;;;;10.57;83.74;94998.00;4961623;28;20055;-83
2022/09/29 14:38:00;;;;;;;7.05;3.13;;;;;;;10.55;84.21;95000.31;4962322;28;20042;-84
2022/09/29 14:40:33;;;;;;;5.65;2.80;;;;;;;10.56;84.75;94995.66;4963420;28;20051;-82
2022/09/29 14:43:13;;;;;;;5.95;3.33;;;;;;;10.60;85.80;95005.50;4961884;29;20119;-84
2022/09/29 14:52:18;;;;;;;8.75;3.53;;;;;;;10.56;86.90;95006.53;4961373;28;20032;-82
2022/09/29 14:54:59;;;;;;;8.90;4.45;;;;;;;10.48;86.94;95011.00;4982289;28;20055;-83